Time;durP1;ratioP1;P1;durP2;ratioP2;P2;SDS_P1;SDS_P2;PMS_P1;PMS_P2;Temp;Humidity;BMP_temperature;BMP_pressure;BME280_temperature;BME280_humidity;BME280_pressure;Samples;Min_cycle;Max_cycle;Signal;HPM_P1;HPM_P2
2023/11/21 00:01:24;;;;;;;;;;;;;;;;;;4944159;29;19919;-75
2023/11/21 00:03:50;;;;;;;;;;;;;;;;;;4928594;29;19927;-74
2023/11/21 00:06:18;;;;;;;;;;;;;;;;;;4959114;29;19950;-74
2023/11/21 00:08:45;;;;;;;;;;;;;;;;;;4958293;28;19914;-75
2023/11/21 00:11:11;;;;;;;;;;;;;;;;;;4960704;28;19980;-74
2023/11/21 00:13:37;;;;;;;;;;;;;;;;;;4950135;28;19919;-74
2023/11/21 00:16:04;;;;;;;;;;;;;;;;;;4965402;29;19933;-74
2023/11/21 00:18:29;;;;;;;;;;;;;;;;;;4962214;28;19962;-74
2023/11/21 00:20:55;;;;;;;;;;;;;;;;;;4962807;28;19918;-75
2023/11/21 00:23:20;;;;;;;;;;;;;;;;;;4960090;29;19921;-76
2023/11/21 00:25:48;;;;;;;;;;;;;;;;;;4943814;29;19957;-74
2023/11/21 00:28:14;;;;;;;;;;;;;;;;;;4979293;28;19918;-76
2023/11/21 00:30:42;;;;;;;;;;;;;;;;;;4976874;28;19916;-74
2023/11/21 00:33:09;;;;;;;;;;;;;;;;;;4967465;28;19923;-75
2023/11/21 00:35:34;;;;;;;;;;;;;;;;;;4967344;29;19915;-74
2023/11/21 00:38:00;;;;;;;;;;;;;;;;;;4951899;29;19914;-73
2023/11/21 00:40:28;;;;;;;;;;;;;;;;;;4970898;29;19915;-73
2023/11/21 00:42:53;;;;;;;;;;;;;;;;;;4956482;29;19911;-74
2023/11/21 00:45:19;;;;;;;;;;;;;;;;;;4967410;29;19914;-74
2023/11/21 00:47:44;;;;;;;;;;;;;;;;;;4966742;29;19962;-73
2023/11/21 00:50:10;;;;;;;;;;;;;;;;;;4953546;29;19989;-75
2023/11/21 00:52:35;;;;;;;;;;;;;;;;;;4952199;29;19915;-73
2023/11/21 00:55:03;;;;;;;;;;;;;;;;;;4970953;29;19922;-74
2023/11/21 00:57:32;;;;;;;;;;;;;;;;;;4970718;28;19915;-74
2023/11/21 00:59:57;;;;;;;;;;;;;;;;;;4971304;29;19915;-74
2023/11/21 01:02:23;;;;;;;;;;;;;;;;;;4955828;29;19922;-74
2023/11/21 01:04:48;;;;;;;;;;;;;;;;;;4956275;29;19935;-73
2023/11/21 01:07:14;;;;;;;;;;;;;;;;;;4954079;29;19942;-74
2023/11/21 01:09:39;;;;;;;;;;;;;;;;;;4952086;29;19915;-74
2023/11/21 01:12:05;;;;;;;;;;;;;;;;;;4955660;29;19962;-74
2023/11/21 01:14:31;;;;;;;;;;;;;;;;;;4955580;29;19918;-72
2023/11/21 01:16:57;;;;;;;;;;;;;;;;;;4974494;28;19918;-73
2023/11/21 01:19:24;;;;;;;;;;;;;;;;;;4969335;29;19917;-74
2023/11/21 01:21:49;;;;;;;;;;;;;;;;;;4954586;29;19907;-74
2023/11/21 01:24:15;;;;;;;;;;;;;;;;;;4938412;29;19938;-73
2023/11/21 01:26:41;;;;;;;;;;;;;;;;;;4945006;28;19939;-74
2023/11/21 01:29:07;;;;;;;;;;;;;;;;;;4962193;28;19985;-74
2023/11/21 01:31:32;;;;;;;;;;;;;;;;;;4954826;28;19958;-74
2023/11/21 01:33:58;;;;;;;;;;;;;;;;;;4940521;29;20282;-74
2023/11/21 01:36:23;;;;;;;;;;;;;;;;;;4971314;29;19922;-74
2023/11/21 01:38:49;;;;;;;;;;;;;;;;;;4970546;28;19914;-75
2023/11/21 01:41:15;;;;;;;;;;;;;;;;;;4932739;29;19919;-74
2023/11/21 01:43:40;;;;;;;;;;;;;;;;;;4950216;29;19922;-74
2023/11/21 01:46:06;;;;;;;;;;;;;;;;;;4951094;29;19915;-76
2023/11/21 01:48:31;;;;;;;;;;;;;;;;;;4945507;29;20358;-75
2023/11/21 01:50:57;;;;;;;;;;;;;;;;;;4942402;29;20000;-74
2023/11/21 01:53:22;;;;;;;;;;;;;;;;;;4941704;29;20290;-76
2023/11/21 01:55:49;;;;;;;;;;;;;;;;;;4943277;29;19915;-75
2023/11/21 01:58:17;;;;;;;;;;;;;;;;;;4963505;28;19957;-74
2023/11/21 02:00:43;;;;;;;;;;;;;;;;;;4945181;29;19919;-75
2023/11/21 02:03:12;;;;;;;;;;;;;;;;;;4940857;29;19921;-74
2023/11/21 02:05:38;;;;;;;;;;;;;;;;;;4957211;28;19915;-75
2023/11/21 02:08:04;;;;;;;;;;;;;;;;;;4921644;29;20397;-74
2023/11/21 02:10:30;;;;;;;;;;;;;;;;;;4936372;29;20433;-75
2023/11/21 02:12:58;;;;;;;;;;;;;;;;;;4940157;29;19922;-75
2023/11/21 02:15:26;;;;;;;;;;;;;;;;;;4935173;29;19915;-75
2023/11/21 02:17:53;;;;;;;;;;;;;;;;;;4953209;28;19921;-75
2023/11/21 02:20:24;;;;;;;;;;;;;;;;;;4954194;28;19921;-74
2023/11/21 02:22:49;;;;;;;;;;;;;;;;;;4971592;28;19921;-75
2023/11/21 02:25:15;;;;;;;;;;;;;;;;;;4941439;29;20370;-75
2023/11/21 02:27:41;;;;;;;;;;;;;;;;;;4957061;28;19981;-75
2023/11/21 02:30:08;;;;;;;;;;;;;;;;;;4941083;29;19923;-75
2023/11/21 02:32:34;;;;;;;;;;;;;;;;;;4957097;28;19930;-74
2023/11/21 02:35:02;;;;;;;;;;;;;;;;;;4957197;28;19938;-75
2023/11/21 02:37:28;;;;;;;;;;;;;;;;;;4941393;29;20447;-75
2023/11/21 02:39:53;;;;;;;;;;;;;;;;;;4957871;29;19949;-75
2023/11/21 02:42:19;;;;;;;;;;;;;;;;;;4954228;28;19991;-75
2023/11/21 02:44:44;;;;;;;;;;;;;;;;;;4954400;28;19993;-74
2023/11/21 02:47:10;;;;;;;;;;;;;;;;;;4954955;28;19941;-76
2023/11/21 02:49:38;;;;;;;;;;;;;;;;;;4954064;28;20398;-75
2023/11/21 02:52:06;;;;;;;;;;;;;;;;;;4938584;29;20425;-76
2023/11/21 02:54:36;;;;;;;;;;;;;;;;;;4938000;29;19918;-75
2023/11/21 02:57:02;;;;;;;;;;;;;;;;;;4939192;29;19961;-75
2023/11/21 02:59:29;;;;;;;;;;;;;;;;;;4937169;29;20385;-75
2023/11/21 03:01:56;;;;;;;;;;;;;;;;;;4952483;28;19958;-75
2023/11/21 03:04:22;;;;;;;;;;;;;;;;;;4938103;29;19915;-75
2023/11/21 03:06:48;;;;;;;;;;;;;;;;;;4938136;29;19922;-75
2023/11/21 03:09:14;;;;;;;;;;;;;;;;;;4952727;29;20355;-75
2023/11/21 03:11:39;;;;;;;;;;;;;;;;;;4941009;28;19921;-75
2023/11/21 03:14:05;;;;;;;;;;;;;;;;;;4941969;29;19918;-75
2023/11/21 03:16:31;;;;;;;;;;;;;;;;;;4956975;28;19961;-74
2023/11/21 03:18:56;;;;;;;;;;;;;;;;;;4971816;28;19942;-75
2023/11/21 03:21:22;;;;;;;;;;;;;;;;;;4956574;28;20441;-75
2023/11/21 03:23:47;;;;;;;;;;;;;;;;;;4956817;28;19910;-75
2023/11/21 03:26:13;;;;;;;;;;;;;;;;;;4956749;28;20013;-75
2023/11/21 03:28:39;;;;;;;;;;;;;;;;;;4955745;28;19942;-75
2023/11/21 03:31:04;;;;;;;;;;;;;;;;;;4948055;29;20591;-74
2023/11/21 03:33:29;;;;;;;;;;;;;;;;;;4951342;28;19962;-75
2023/11/21 03:35:55;;;;;;;;;;;;;;;;;;4937437;29;19915;-74
2023/11/21 03:38:21;;;;;;;;;;;;;;;;;;4937350;29;19954;-74
2023/11/21 03:40:47;;;;;;;;;;;;;;;;;;4952156;29;19961;-74
2023/11/21 03:43:14;;;;;;;;;;;;;;;;;;4919775;29;20301;-75
2023/11/21 03:45:40;;;;;;;;;;;;;;;;;;4937301;29;20013;-74
2023/11/21 03:48:06;;;;;;;;;;;;;;;;;;4951543;28;19925;-75
2023/11/21 03:50:32;;;;;;;;;;;;;;;;;;4935767;29;19911;-74
2023/11/21 03:53:00;;;;;;;;;;;;;;;;;;4919775;29;19922;-75
2023/11/21 03:55:27;;;;;;;;;;;;;;;;;;4935695;29;19989;-74
2023/11/21 03:57:52;;;;;;;;;;;;;;;;;;4937595;29;19950;-74
2023/11/21 04:00:20;;;;;;;;;;;;;;;;;;4920023;29;19910;-75
2023/11/21 04:02:45;;;;;;;;;;;;;;;;;;4951930;28;19915;-75
2023/11/21 04:05:12;;;;;;;;;;;;;;;;;;4952153;28;20271;-76
2023/11/21 04:07:38;;;;;;;;;;;;;;;;;;4941156;29;19937;-75
2023/11/21 04:10:03;;;;;;;;;;;;;;;;;;4937075;29;19911;-76
2023/11/21 04:12:29;;;;;;;;;;;;;;;;;;4939399;29;19922;-74
2023/11/21 04:14:54;;;;;;;;;;;;;;;;;;4942532;29;19917;-75
2023/11/21 04:17:20;;;;;;;;;;;;;;;;;;4935493;29;20006;-75
2023/11/21 04:19:46;;;;;;;;;;;;;;;;;;4952926;29;19914;-74
2023/11/21 04:22:13;;;;;;;;;;;;;;;;;;4939023;29;19911;-74
2023/11/21 04:24:39;;;;;;;;;;;;;;;;;;4954310;28;19929;-74
2023/11/21 04:27:04;;;;;;;;;;;;;;;;;;4954477;29;19910;-75
2023/11/21 04:29:30;;;;;;;;;;;;;;;;;;4951265;28;19922;-75
2023/11/21 04:31:56;;;;;;;;;;;;;;;;;;4958407;28;19915;-75
2023/11/21 04:34:21;;;;;;;;;;;;;;;;;;4954565;29;20362;-75
2023/11/21 04:36:47;;;;;;;;;;;;;;;;;;4954691;29;19915;-75
2023/11/21 04:39:12;;;;;;;;;;;;;;;;;;4956180;29;20575;-75
2023/11/21 04:41:39;;;;;;;;;;;;;;;;;;4970194;28;19915;-75
2023/11/21 04:44:04;;;;;;;;;;;;;;;;;;4942470;29;19937;-74
2023/11/21 04:46:30;;;;;;;;;;;;;;;;;;4955427;28;20370;-75
2023/11/21 04:48:55;;;;;;;;;;;;;;;;;;4946576;29;19946;-75
2023/11/21 04:51:21;;;;;;;;;;;;;;;;;;4950894;28;20315;-75
2023/11/21 04:53:46;;;;;;;;;;;;;;;;;;4950877;29;19921;-75
2023/11/21 04:56:12;;;;;;;;;;;;;;;;;;4935027;29;20374;-75
2023/11/21 04:58:37;;;;;;;;;;;;;;;;;;4936763;29;19917;-75
2023/11/21 05:01:03;;;;;;;;;;;;;;;;;;4936442;29;19957;-74
2023/11/21 05:03:29;;;;;;;;;;;;;;;;;;4935268;29;19915;-74
2023/11/21 05:05:55;;;;;;;;;;;;;;;;;;4951807;28;19910;-75
2023/11/21 05:08:22;;;;;;;;;;;;;;;;;;4935305;29;19915;-76
2023/11/21 05:10:48;;;;;;;;;;;;;;;;;;4937035;29;19966;-75
2023/11/21 05:13:15;;;;;;;;;;;;;;;;;;4942360;28;19941;-75
2023/11/21 05:15:41;;;;;;;;;;;;;;;;;;4954831;28;20002;-75
2023/11/21 05:18:06;;;;;;;;;;;;;;;;;;4971308;28;19950;-75
2023/11/21 05:20:34;;;;;;;;;;;;;;;;;;4969644;28;19922;-75
2023/11/21 05:23:00;;;;;;;;;;;;;;;;;;4954654;28;19923;-74
2023/11/21 05:25:25;;;;;;;;;;;;;;;;;;4954536;28;19956;-76
2023/11/21 05:27:51;;;;;;;;;;;;;;;;;;4956549;28;19921;-75
2023/11/21 05:30:16;;;;;;;;;;;;;;;;;;4926665;29;20494;-75
2023/11/21 05:32:42;;;;;;;;;;;;;;;;;;4936233;29;19915;-75
2023/11/21 05:35:11;;;;;;;;;;;;;;;;;;4934673;29;19919;-75
2023/11/21 05:37:38;;;;;;;;;;;;;;;;;;4950328;29;20281;-76
2023/11/21 05:40:05;;;;;;;;;;;;;;;;;;4935770;29;19997;-73
2023/11/21 05:42:31;;;;;;;;;;;;;;;;;;4937778;29;20342;-75
2023/11/21 05:44:59;;;;;;;;;;;;;;;;;;4947622;28;19944;-75
2023/11/21 05:47:26;;;;;;;;;;;;;;;;;;4955075;28;19919;-75
2023/11/21 05:49:52;;;;;;;;;;;;;;;;;;4918832;29;19922;-75
2023/11/21 05:52:17;;;;;;;;;;;;;;;;;;4919163;29;19911;-76
2023/11/21 05:54:42;;;;;;;;;;;;;;;;;;4950512;29;19929;-76
2023/11/21 05:57:08;;;;;;;;;;;;;;;;;;4936258;29;19911;-75
2023/11/21 05:59:34;;;;;;;;;;;;;;;;;;4924648;29;19922;-76
2023/11/21 06:01:59;;;;;;;;;;;;;;;;;;4957565;28;20374;-75
2023/11/21 06:04:25;;;;;;;;;;;;;;;;;;4941737;29;19921;-75
2023/11/21 06:06:51;;;;;;;;;;;;;;;;;;4940920;29;19915;-75
2023/11/21 06:09:16;;;;;;;;;;;;;;;;;;4973093;28;19911;-74
2023/11/21 06:11:41;;;;;;;;;;;;;;;;;;4940822;29;20409;-75
2023/11/21 06:14:09;;;;;;;;;;;;;;;;;;4942042;29;19962;-75
2023/11/21 06:16:34;;;;;;;;;;;;;;;;;;4953930;29;19918;-75
2023/11/21 06:19:01;;;;;;;;;;;;;;;;;;4948523;29;20297;-75
2023/11/21 06:21:26;;;;;;;;;;;;;;;;;;4957671;28;20385;-75
2023/11/21 06:23:52;;;;;;;;;;;;;;;;;;4956544;28;19910;-74
2023/11/21 06:26:18;;;;;;;;;;;;;;;;;;4957633;28;19973;-75
2023/11/21 06:28:44;;;;;;;;;;;;;;;;;;4940292;29;19915;-75
2023/11/21 06:31:10;;;;;;;;;;;;;;;;;;4921598;29;19957;-75
2023/11/21 06:33:36;;;;;;;;;;;;;;;;;;4921476;29;20000;-75
2023/11/21 06:36:05;;;;;;;;;;;;;;;;;;4938121;29;19911;-74
2023/11/21 06:38:32;;;;;;;;;;;;;;;;;;4937198;29;19915;-74
2023/11/21 06:40:58;;;;;;;;;;;;;;;;;;4937107;29;19911;-75
2023/11/21 06:43:23;;;;;;;;;;;;;;;;;;4940252;29;19922;-73
2023/11/21 06:45:49;;;;;;;;;;;;;;;;;;4963877;28;19918;-74
2023/11/21 06:48:14;;;;;;;;;;;;;;;;;;4974959;28;19918;-74
2023/11/21 06:50:40;;;;;;;;;;;;;;;;;;4947091;29;19914;-75
2023/11/21 06:53:07;;;;;;;;;;;;;;;;;;4955593;28;19921;-75
2023/11/21 06:55:36;;;;;;;;;;;;;;;;;;4956172;28;19914;-74
2023/11/21 06:58:01;;;;;;;;;;;;;;;;;;4940230;29;19914;-74
2023/11/21 07:00:30;;;;;;;;;;;;;;;;;;4940841;29;19917;-74
2023/11/21 07:02:55;;;;;;;;;;;;;;;;;;4952528;28;20370;-75
2023/11/21 07:05:21;;;;;;;;;;;;;;;;;;4936746;29;19953;-75
2023/11/21 07:07:48;;;;;;;;;;;;;;;;;;4920873;29;19918;-74
2023/11/21 07:10:13;;;;;;;;;;;;;;;;;;4937934;29;20415;-75
2023/11/21 07:12:40;;;;;;;;;;;;;;;;;;4939983;29;19997;-75
2023/11/21 07:15:08;;;;;;;;;;;;;;;;;;4942939;29;20368;-75
2023/11/21 07:17:35;;;;;;;;;;;;;;;;;;4937623;29;19938;-76
2023/11/21 07:20:00;;;;;;;;;;;;;;;;;;4951947;28;20001;-74
2023/11/21 07:22:25;;;;;;;;;;;;;;;;;;4937731;29;20365;-75
2023/11/21 07:24:51;;;;;;;;;;;;;;;;;;4937248;29;19922;-75
2023/11/21 07:27:17;;;;;;;;;;;;;;;;;;4952446;28;19993;-74
2023/11/21 07:29:43;;;;;;;;;;;;;;;;;;4939238;29;19922;-75
2023/11/21 07:32:09;;;;;;;;;;;;;;;;;;4936012;29;20068;-75
2023/11/21 07:34:38;;;;;;;;;;;;;;;;;;4935739;29;20334;-75
2023/11/21 07:37:03;;;;;;;;;;;;;;;;;;4920143;29;19910;-75
2023/11/21 07:39:29;;;;;;;;;;;;;;;;;;4950136;28;19961;-76
2023/11/21 07:41:54;;;;;;;;;;;;;;;;;;4954793;28;19915;-75
2023/11/21 07:44:20;;;;;;;;;;;;;;;;;;4945063;28;19918;-75
2023/11/21 07:46:50;;;;;;;;;;;;;;;;;;4955128;29;20453;-75
2023/11/21 07:49:17;;;;;;;;;;;;;;;;;;4944502;29;19915;-74
2023/11/21 07:51:42;;;;;;;;;;;;;;;;;;4935715;29;19969;-74
2023/11/21 07:54:07;;;;;;;;;;;;;;;;;;4937195;29;20393;-73
2023/11/21 07:56:33;;;;;;;;;;;;;;;;;;4938069;29;19914;-75
2023/11/21 07:58:58;;;;;;;;;;;;;;;;;;4953514;29;19911;-74
2023/11/21 08:01:24;;;;;;;;;;;;;;;;;;4943140;29;19921;-80
2023/11/21 08:03:52;;;;;;;;;;;;;;;;;;4944763;29;19942;-80
2023/11/21 08:06:17;;;;;;;;;;;;;;;;;;4942823;29;19918;-79
2023/11/21 08:08:43;;;;;;;;;;;;;;;;;;4941754;29;19919;-76
2023/11/21 08:11:10;;;;;;;;;;;;;;;;;;4937990;29;20126;-76
2023/11/21 08:13:35;;;;;;;;;;;;;;;;;;4945084;28;19919;-75
2023/11/21 08:16:05;;;;;;;;;;;;;;;;;;4957400;28;19994;-76
2023/11/21 08:18:34;;;;;;;;;;;;;;;;;;4942443;29;19914;-76
2023/11/21 08:21:00;;;;;;;;;;;;;;;;;;4970630;28;19917;-76
2023/11/21 08:23:26;;;;;;;;;;;;;;;;;;4958145;29;19915;-75
2023/11/21 08:25:51;;;;;;;;;;;;;;;;;;4971789;28;19910;-76
2023/11/21 08:28:17;;;;;;;;;;;;;;;;;;4972431;28;19914;-75
2023/11/21 08:30:42;;;;;;;;;;;;;;;;;;4964816;28;19922;-75
2023/11/21 08:33:11;;;;;;;;;;;;;;;;;;4956275;28;20082;-74
2023/11/21 08:35:37;;;;;;;;;;;;;;;;;;4954669;28;19973;-74
2023/11/21 08:38:02;;;;;;;;;;;;;;;;;;4970756;28;19918;-74
2023/11/21 08:40:28;;;;;;;;;;;;;;;;;;4936756;29;20278;-74
2023/11/21 08:42:54;;;;;;;;;;;;;;;;;;4953474;28;19957;-75
2023/11/21 08:45:20;;;;;;;;;;;;;;;;;;4953222;28;19914;-75
2023/11/21 08:47:45;;;;;;;;;;;;;;;;;;4937732;29;19918;-75
2023/11/21 08:50:12;;;;;;;;;;;;;;;;;;4953320;28;19984;-75
2023/11/21 08:52:37;;;;;;;;;;;;;;;;;;4954397;28;19915;-74
2023/11/21 08:55:07;;;;;;;;;;;;;;;;;;4953298;28;20318;-75
2023/11/21 08:57:33;;;;;;;;;;;;;;;;;;4952786;28;19962;-74
2023/11/21 08:59:58;;;;;;;;;;;;;;;;;;4952975;28;19968;-74
2023/11/21 09:02:24;;;;;;;;;;;;;;;;;;4941125;28;19937;-75
2023/11/21 09:04:50;;;;;;;;;;;;;;;;;;4953350;28;19993;-76
2023/11/21 09:07:16;;;;;;;;;;;;;;;;;;4954460;28;20301;-74
2023/11/21 09:09:41;;;;;;;;;;;;;;;;;;4952848;29;19917;-75
2023/11/21 09:12:07;;;;;;;;;;;;;;;;;;4937238;28;19918;-75
2023/11/21 09:14:32;;;;;;;;;;;;;;;;;;4953395;28;20445;-74
2023/11/21 09:16:58;;;;;;;;;;;;;;;;;;4937504;29;19920;-75
2023/11/21 09:19:24;;;;;;;;;;;;;;;;;;4915108;29;20007;-74
2023/11/21 09:21:50;;;;;;;;;;;;;;;;;;4933982;29;19923;-75
2023/11/21 09:24:16;;;;;;;;;;;;;;;;;;4950217;28;19938;-75
2023/11/21 09:26:41;;;;;;;;;;;;;;;;;;4921946;29;19920;-75
2023/11/21 09:29:08;;;;;;;;;;;;;;;;;;4952086;28;19911;-75
2023/11/21 09:31:35;;;;;;;;;;;;;;;;;;4944930;28;19914;-75
2023/11/21 09:34:02;;;;;;;;;;;;;;;;;;4957701;29;20041;-75
2023/11/21 09:36:29;;;;;;;;;;;;;;;;;;4956957;28;20353;-75
2023/11/21 09:38:55;;;;;;;;;;;;;;;;;;4958609;28;20001;-75
2023/11/21 09:41:21;;;;;;;;;;;;;;;;;;4957345;28;20390;-75
2023/11/21 09:43:46;;;;;;;;;;;;;;;;;;4957929;28;20489;-75
2023/11/21 09:46:12;;;;;;;;;;;;;;;;;;4956926;28;19914;-75
2023/11/21 09:48:38;;;;;;;;;;;;;;;;;;4956797;28;19996;-75
2023/11/21 09:51:04;;;;;;;;;;;;;;;;;;4956757;28;19966;-75
2023/11/21 09:53:29;;;;;;;;;;;;;;;;;;4958543;28;19922;-75
2023/11/21 09:55:56;;;;;;;;;;;;;;;;;;4950447;28;19919;-75
2023/11/21 09:58:24;;;;;;;;;;;;;;;;;;4937743;29;20374;-75
2023/11/21 10:00:49;;;;;;;;;;;;;;;;;;4938979;29;20370;-75
2023/11/21 10:03:15;;;;;;;;;;;;;;;;;;4937487;29;20367;-75
2023/11/21 10:05:41;;;;;;;;;;;;;;;;;;4938860;29;20298;-74
2023/11/21 10:08:06;;;;;;;;;;;;;;;;;;4937130;29;19911;-75
2023/11/21 10:10:32;;;;;;;;;;;;;;;;;;4939015;29;19921;-74
2023/11/21 10:12:57;;;;;;;;;;;;;;;;;;4938234;29;19919;-75
2023/11/21 10:15:25;;;;;;;;;;;;;;;;;;4957910;28;20345;-75
2023/11/21 10:17:53;;;;;;;;;;;;;;;;;;4958163;29;19925;-75
2023/11/21 10:20:19;;;;;;;;;;;;;;;;;;4956668;29;19911;-74
2023/11/21 10:22:45;;;;;;;;;;;;;;;;;;4951364;28;19914;-76
2023/11/21 10:25:11;;;;;;;;;;;;;;;;;;4955843;28;19914;-75
2023/11/21 10:27:39;;;;;;;;;;;;;;;;;;4946615;29;19915;-75
2023/11/21 10:30:04;;;;;;;;;;;;;;;;;;4969838;28;19911;-75
2023/11/21 10:32:32;;;;;;;;;;;;;;;;;;4956661;29;19918;-76
2023/11/21 10:35:00;;;;;;;;;;;;;;;;;;4956966;28;19921;-76
2023/11/21 10:37:27;;;;;;;;;;;;;;;;;;4956666;28;19915;-76
2023/11/21 10:39:53;;;;;;;;;;;;;;;;;;4936024;29;19918;-74
2023/11/21 10:42:20;;;;;;;;;;;;;;;;;;4955595;28;19962;-75
2023/11/21 10:44:45;;;;;;;;;;;;;;;;;;4932895;29;19918;-75
2023/11/21 10:47:11;;;;;;;;;;;;;;;;;;4956922;29;20066;-76
2023/11/21 10:49:37;;;;;;;;;;;;;;;;;;4966526;28;20346;-74
2023/11/21 10:52:03;;;;;;;;;;;;;;;;;;4955736;28;19911;-76
2023/11/21 10:54:29;;;;;;;;;;;;;;;;;;4940682;29;19919;-75
2023/11/21 10:56:55;;;;;;;;;;;;;;;;;;4956225;29;20344;-75
2023/11/21 10:59:24;;;;;;;;;;;;;;;;;;4956229;29;19925;-76
2023/11/21 11:01:50;;;;;;;;;;;;;;;;;;4939407;29;20496;-76
2023/11/21 11:04:16;;;;;;;;;;;;;;;;;;4940469;29;19918;-76
2023/11/21 11:06:42;;;;;;;;;;;;;;;;;;4956776;28;19976;-76
2023/11/21 11:09:08;;;;;;;;;;;;;;;;;;4940934;29;20345;-75
2023/11/21 11:11:36;;;;;;;;;;;;;;;;;;4958578;28;19921;-75
2023/11/21 11:14:03;;;;;;;;;;;;;;;;;;4925938;29;20002;-76
2023/11/21 11:16:28;;;;;;;;;;;;;;;;;;4933413;29;19922;-76
2023/11/21 11:18:54;;;;;;;;;;;;;;;;;;4925640;29;19910;-75
2023/11/21 11:21:20;;;;;;;;;;;;;;;;;;4943189;28;19915;-76
2023/11/21 11:23:46;;;;;;;;;;;;;;;;;;4964338;28;19930;-76
2023/11/21 11:26:11;;;;;;;;;;;;;;;;;;4956435;28;20382;-76
2023/11/21 11:28:37;;;;;;;;;;;;;;;;;;4957348;28;19955;-76
2023/11/21 11:31:05;;;;;;;;;;;;;;;;;;4957100;28;19914;-75
2023/11/21 11:33:32;;;;;;;;;;;;;;;;;;4939652;29;19918;-76
2023/11/21 11:35:58;;;;;;;;;;;;;;;;;;4955812;28;20397;-75
2023/11/21 11:38:23;;;;;;;;;;;;;;;;;;4971378;28;19915;-76
2023/11/21 11:40:49;;;;;;;;;;;;;;;;;;4955308;29;19956;-75
2023/11/21 11:43:15;;;;;;;;;;;;;;;;;;4955255;28;19914;-75
2023/11/21 11:45:42;;;;;;;;;;;;;;;;;;4955124;29;19925;-76
2023/11/21 11:48:07;;;;;;;;;;;;;;;;;;4984501;23;19937;-79
2023/11/21 11:50:32;;;;;;;;;;;;;;;;;;4977415;28;19915;-79
2023/11/21 11:52:58;;;;;;;;;;;;;;;;;;4953895;28;19918;-80
2023/11/21 11:55:24;;;;;;;;;;;;;;;;;;4970898;28;19921;-80
2023/11/21 11:57:55;;;;;;;;;;;;;;;;;;4947318;28;19917;-80
2023/11/21 12:00:21;;;;;;;;;;;;;;;;;;4960740;28;19953;-78
2023/11/21 12:02:47;;;;;;;;;;;;;;;;;;4959147;28;20288;-80
2023/11/21 12:05:15;;;;;;;;;;;;;;;;;;4960208;28;19915;-80
2023/11/21 12:07:40;;;;;;;;;;;;;;;;;;4961039;28;19910;-80
2023/11/21 12:10:06;;;;;;;;;;;;;;;;;;4968883;28;19914;-80
2023/11/21 12:12:35;;;;;;;;;;;;;;;;;;4959365;28;20317;-81
2023/11/21 12:15:00;;;;;;;;;;;;;;;;;;4959417;28;19914;-80
2023/11/21 12:17:25;;;;;;;;;;;;;;;;;;4955607;29;19977;-80
2023/11/21 12:19:53;;;;;;;;;;;;;;;;;;4960458;28;20350;-79
2023/11/21 12:22:19;;;;;;;;;;;;;;;;;;4943221;28;19938;-80
2023/11/21 12:24:44;;;;;;;;;;;;;;;;;;4958180;28;19969;-80
2023/11/21 12:27:10;;;;;;;;;;;;;;;;;;4976811;28;20009;-80
2023/11/21 12:29:37;;;;;;;;;;;;;;;;;;4959217;28;19921;-80
2023/11/21 12:32:06;;;;;;;;;;;;;;;;;;4943151;28;20380;-80
2023/11/21 12:34:35;;;;;;;;;;;;;;;;;;4957085;28;20297;-79
2023/11/21 12:37:03;;;;;;;;;;;;;;;;;;4944926;28;20126;-80
2023/11/21 12:39:29;;;;;;;;;;;;;;;;;;4974985;28;19910;-79
2023/11/21 12:41:56;;;;;;;;;;;;;;;;;;4976186;28;20005;-79
2023/11/21 12:44:23;;;;;;;;;;;;;;;;;;4983747;28;20004;-79
2023/11/21 12:46:50;;;;;;;;;;;;;;;;;;4944941;28;19969;-80
2023/11/21 12:49:17;;;;;;;;;;;;;;;;;;4945278;28;20378;-80
2023/11/21 12:51:44;;;;;;;;;;;;;;;;;;4953591;28;19918;-79
2023/11/21 12:54:12;;;;;;;;;;;;;;;;;;4992233;28;19985;-79
2023/11/21 12:56:38;;;;;;;;;;;;;;;;;;4956110;28;19965;-79
2023/11/21 12:59:06;;;;;;;;;;;;;;;;;;4991946;28;19948;-80
2023/11/21 13:01:31;;;;;;;;;;;;;;;;;;5080755;23;19929;-79
2023/11/21 13:03:57;;;;;;;;;;;;;;;;;;4960002;28;19984;-80
2023/11/21 13:06:25;;;;;;;;;;;;;;;;;;4976736;28;20341;-79
2023/11/21 13:08:50;;;;;;;;;;;;;;;;;;4942580;28;19938;-80
2023/11/21 13:11:15;;;;;;;;;;;;;;;;;;4974435;28;19922;-80
2023/11/21 13:13:41;;;;;;;;;;;;;;;;;;4975747;28;20020;-80
2023/11/21 13:16:08;;;;;;;;;;;;;;;;;;4963544;28;19925;-79
2023/11/21 13:18:33;;;;;;;;;;;;;;;;;;4977231;28;19918;-79
2023/11/21 13:20:58;;;;;;;;;;;;;;;;;;4977489;28;19960;-80
2023/11/21 13:23:24;;;;;;;;;;;;;;;;;;4962220;28;19977;-80
2023/11/21 13:25:50;;;;;;;;;;;;;;;;;;4980531;28;20377;-79
2023/11/21 13:28:20;;;;;;;;;;;;;;;;;;4979996;28;19910;-80
2023/11/21 13:30:47;;;;;;;;;;;;;;;;;;4996910;28;19985;-79
2023/11/21 13:33:17;;;;;;;;;;;;;;;;;;4981387;28;19918;-79
2023/11/21 13:35:51;;;;;;;;;;;;;;;;;;4969526;28;19938;-79
2023/11/21 13:38:22;;;;;;;;;;;;;;;;;;4976375;28;20021;-80
2023/11/21 13:40:49;;;;;;;;;;;;;;;;;;4990510;28;20273;-79
2023/11/21 13:43:15;;;;;;;;;;;;;;;;;;4991777;28;19921;-79
2023/11/21 13:45:42;;;;;;;;;;;;;;;;;;4988086;28;19930;-79
2023/11/21 13:48:13;;;;;;;;;;;;;;;;;;4988072;28;19914;-79
2023/11/21 13:51:36;;;;;;;;;;;;;;;;;;4989779;28;19964;-79
2023/11/21 13:53:32;;;;;;;;;;;;;;;;;;4985781;28;19918;-78
2023/11/21 13:56:01;;;;;;;;;;;;;;;;;;4989199;28;19973;-79
2023/11/21 13:58:41;;;;;;;;;;;;;;;;;;4979340;28;19949;-79
2023/11/21 14:01:13;;;;;;;;;;;;;;;;;;4980126;28;20369;-79
2023/11/21 14:03:50;;;;;;;;;;;;;;;;;;4962604;28;19973;-79
2023/11/21 14:06:23;;;;;;;;;;;;;;;;;;4989641;28;20369;-79
2023/11/21 14:08:49;;;;;;;;;;;;;;;;;;4976976;28;19922;-79
2023/11/21 14:11:18;;;;;;;;;;;;;;;;;;4973542;28;20297;-80
2023/11/21 14:13:48;;;;;;;;;;;;;;;;;;4974126;28;19958;-79
2023/11/21 14:16:14;;;;;;;;;;;;;;;;;;4954860;29;19914;-78
2023/11/21 14:18:52;;;;;;;;;;;;;;;;;;4975810;28;20373;-79
2023/11/21 14:21:19;;;;;;;;;;;;;;;;;;4977963;28;19921;-79
2023/11/21 14:23:45;;;;;;;;;;;;;;;;;;4972030;28;19950;-79
2023/11/21 14:26:13;;;;;;;;;;;;;;;;;;4977704;28;19915;-79
2023/11/21 14:28:39;;;;;;;;;;;;;;;;;;4977918;28;19918;-79
2023/11/21 14:31:05;;;;;;;;;;;;;;;;;;4978128;28;19914;-79
2023/11/21 14:33:30;;;;;;;;;;;;;;;;;;4977925;28;19918;-79
2023/11/21 14:35:57;;;;;;;;;;;;;;;;;;4978544;28;19914;-79
2023/11/21 14:38:27;;;;;;;;;;;;;;;;;;4970039;28;20040;-79
2023/11/21 14:40:53;;;;;;;;;;;;;;;;;;4973824;28;19915;-79
2023/11/21 14:43:20;;;;;;;;;;;;;;;;;;4957742;28;19922;-79
2023/11/21 14:45:48;;;;;;;;;;;;;;;;;;4975348;28;19921;-79
2023/11/21 14:48:34;;;;;;;;;;;;;;;;;;4976040;28;19921;-79
2023/11/21 14:56:22;;;;;;;;;;;;;;;;;;4970121;28;19914;-79
2023/11/21 14:58:48;;;;;;;;;;;;;;;;;;4965029;28;19922;-80
2023/11/21 15:01:26;;;;;;;;;;;;;;;;;;4982753;28;19921;-79
2023/11/21 15:03:52;;;;;;;;;;;;;;;;;;4982947;28;19918;-80
2023/11/21 15:06:29;;;;;;;;;;;;;;;;;;4994760;28;20024;-79
2023/11/21 15:11:33;;;;;;;;;;;;;;;;;;4974811;28;20042;-78
2023/11/21 15:14:06;;;;;;;;;;;;;;;;;;4972915;28;20364;-78
2023/11/21 15:16:32;;;;;;;;;;;;;;;;;;4957310;29;19914;-79
2023/11/21 15:18:58;;;;;;;;;;;;;;;;;;4946462;28;19934;-78
2023/11/21 15:21:24;;;;;;;;;;;;;;;;;;4978092;28;19915;-78
2023/11/21 15:23:52;;;;;;;;;;;;;;;;;;4945208;28;20005;-78
2023/11/21 15:26:18;;;;;;;;;;;;;;;;;;4959368;28;19915;-78
2023/11/21 15:28:44;;;;;;;;;;;;;;;;;;4992466;28;20018;-78
2023/11/21 15:31:11;;;;;;;;;;;;;;;;;;4975645;28;19917;-78
2023/11/21 15:33:39;;;;;;;;;;;;;;;;;;4976570;28;19925;-78
2023/11/21 15:36:09;;;;;;;;;;;;;;;;;;4961490;28;19924;-78
2023/11/21 15:38:35;;;;;;;;;;;;;;;;;;4991097;28;19914;-79
2023/11/21 15:41:00;;;;;;;;;;;;;;;;;;4976162;28;19918;-79
2023/11/21 15:43:27;;;;;;;;;;;;;;;;;;4990952;28;19976;-78
2023/11/21 15:45:53;;;;;;;;;;;;;;;;;;4959125;28;19914;-78
2023/11/21 15:48:21;;;;;;;;;;;;;;;;;;4976336;28;19910;-78
2023/11/21 15:50:47;;;;;;;;;;;;;;;;;;4992110;28;20424;-79
2023/11/21 15:53:13;;;;;;;;;;;;;;;;;;4990803;28;19976;-78
2023/11/21 15:55:42;;;;;;;;;;;;;;;;;;4959718;28;20230;-78
2023/11/21 15:58:07;;;;;;;;;;;;;;;;;;4976904;28;19921;-79
2023/11/21 16:00:33;;;;;;;;;;;;;;;;;;4991602;28;19914;-78
2023/11/21 16:02:58;;;;;;;;;;;;;;;;;;4975647;28;20001;-77
2023/11/21 16:05:25;;;;;;;;;;;;;;;;;;4975518;28;19937;-79
2023/11/21 16:07:51;;;;;;;;;;;;;;;;;;4974788;28;19914;-77
2023/11/21 16:10:16;;;;;;;;;;;;;;;;;;4970999;28;19915;-79
2023/11/21 16:12:42;;;;;;;;;;;;;;;;;;4973684;28;19918;-79
2023/11/21 16:15:08;;;;;;;;;;;;;;;;;;4991320;28;20005;-78
2023/11/21 16:17:33;;;;;;;;;;;;;;;;;;4964352;28;19938;-79
2023/11/21 16:20:04;;;;;;;;;;;;;;;;;;4983919;28;19911;-79
2023/11/21 16:22:33;;;;;;;;;;;;;;;;;;4977547;28;19914;-77
2023/11/21 16:24:58;;;;;;;;;;;;;;;;;;4989580;28;19964;-77
2023/11/21 16:27:24;;;;;;;;;;;;;;;;;;4986470;28;19914;-78
2023/11/21 16:29:49;;;;;;;;;;;;;;;;;;4986097;28;19918;-78
2023/11/21 16:32:16;;;;;;;;;;;;;;;;;;4978476;28;19910;-79
2023/11/21 16:34:41;;;;;;;;;;;;;;;;;;4975116;28;19918;-79
2023/11/21 16:37:07;;;;;;;;;;;;;;;;;;4974537;28;19922;-79
2023/11/21 16:39:36;;;;;;;;;;;;;;;;;;4975826;28;19921;-78
2023/11/21 16:42:01;;;;;;;;;;;;;;;;;;4960963;28;19922;-78
2023/11/21 16:44:27;;;;;;;;;;;;;;;;;;4957295;28;19910;-79
2023/11/21 16:46:57;;;;;;;;;;;;;;;;;;4974224;28;19914;-79
2023/11/21 16:49:34;;;;;;;;;;;;;;;;;;;;;